Time;durP1;ratioP1;P1;durP2;ratioP2;P2;SDS_P1;SDS_P2;PMS_P1;PMS_P2;Temp;Humidity;BMP_temperature;BMP_pressure;BME280_temperature;BME280_humidity;BME280_pressure;Samples;Min_cycle;Max_cycle;Signal;HPM_P1;HPM_P2
2023/01/24 00:01:43;;;;;;;27.77;18.50;;;3.00;99.90;;;;;;4932225;28;20222;-47
2023/01/24 00:04:11;;;;;;;28.15;18.58;;;3.30;99.90;;;;;;4931900;29;20577;-50
2023/01/24 00:06:37;;;;;;;27.42;17.77;;;2.70;99.90;;;;;;4932334;29;20704;-49
2023/01/24 00:09:04;;;;;;;25.50;18.38;;;3.20;99.90;;;;;;4931631;28;20207;-49
2023/01/24 00:11:30;;;;;;;33.17;19.40;;;2.90;99.90;;;;;;4932018;28;20211;-48
2023/01/24 00:13:57;;;;;;;27.20;18.50;;;2.90;99.90;;;;;;4932366;28;20204;-48
2023/01/24 00:16:23;;;;;;;27.10;17.17;;;3.20;99.90;;;;;;4935279;28;20487;-47
2023/01/24 00:18:50;;;;;;;32.58;19.13;;;3.30;99.90;;;;;;4934818;28;20200;-48
2023/01/24 00:21:21;;;;;;;27.15;18.15;;;3.20;99.90;;;;;;4935045;29;20201;-48
2023/01/24 00:23:51;;;;;;;26.75;17.38;;;3.30;99.90;;;;;;4935711;28;20204;-47
2023/01/24 00:26:19;;;;;;;24.52;16.35;;;2.80;99.90;;;;;;4935129;29;20224;-47
2023/01/24 00:28:46;;;;;;;23.20;17.42;;;2.90;99.90;;;;;;5001103;28;20208;-47
2023/01/24 00:31:13;;;;;;;26.10;18.75;;;3.20;99.90;;;;;;4935093;28;20208;-47
2023/01/24 00:33:40;;;;;;;25.77;17.00;;;2.70;99.90;;;;;;4935366;29;20538;-47
2023/01/24 00:36:10;;;;;;;28.60;17.10;;;2.90;99.90;;;;;;5001251;28;20228;-49
2023/01/24 00:38:38;;;;;;;24.77;16.67;;;3.10;99.90;;;;;;4934741;29;20208;-48
2023/01/24 00:41:05;;;;;;;22.80;16.10;;;3.10;99.90;;;;;;4934711;29;20200;-47
2023/01/24 00:43:31;;;;;;;25.85;17.15;;;2.80;99.90;;;;;;4934511;29;20277;-47
2023/01/24 00:45:58;;;;;;;21.20;16.00;;;2.60;99.90;;;;;;4934712;28;20230;-48
2023/01/24 00:48:25;;;;;;;24.40;17.73;;;3.20;99.90;;;;;;5000159;28;20203;-48
2023/01/24 00:50:52;;;;;;;22.48;16.15;;;2.70;99.90;;;;;;4935091;28;20196;-47
2023/01/24 00:53:19;;;;;;;25.25;16.67;;;2.60;99.90;;;;;;4934672;29;20196;-47
2023/01/24 00:55:48;;;;;;;25.83;16.52;;;2.60;99.90;;;;;;5000450;28;20230;-48
2023/01/24 00:58:15;;;;;;;22.58;16.52;;;2.60;99.90;;;;;;4934102;29;20200;-48
2023/01/24 01:00:42;;;;;;;20.67;16.17;;;2.90;99.90;;;;;;5000396;28;20665;-47
2023/01/24 01:03:12;;;;;;;23.70;15.80;;;2.30;99.90;;;;;;4934637;28;20228;-48
2023/01/24 01:05:39;;;;;;;22.45;16.65;;;2.70;99.90;;;;;;4934195;29;20307;-48
2023/01/24 01:08:05;;;;;;;22.48;15.50;;;3.10;99.90;;;;;;4934140;29;20674;-48
2023/01/24 01:10:32;;;;;;;25.17;16.35;;;3.00;99.90;;;;;;5000046;28;20208;-48
2023/01/24 01:13:00;;;;;;;24.05;14.70;;;2.60;99.90;;;;;;4934372;28;20203;-47
2023/01/24 01:15:27;;;;;;;20.02;15.13;;;2.70;99.90;;;;;;4934385;28;20559;-47
2023/01/24 01:17:53;;;;;;;21.23;14.95;;;2.60;99.90;;;;;;4934362;28;20200;-47
2023/01/24 01:20:20;;;;;;;22.77;15.82;;;2.90;99.90;;;;;;4934257;28;20208;-47
2023/01/24 01:22:46;;;;;;;18.95;14.40;;;2.70;99.90;;;;;;4934308;28;20213;-47
2023/01/24 01:25:13;;;;;;;26.08;15.38;;;2.60;99.90;;;;;;4933779;29;20200;-46
2023/01/24 01:27:40;;;;;;;24.85;14.23;;;2.80;99.90;;;;;;4933610;29;20204;-46
2023/01/24 01:30:09;;;;;;;21.95;14.00;;;2.20;99.90;;;;;;4933982;28;20200;-47
2023/01/24 01:32:36;;;;;;;20.33;13.48;;;2.50;99.90;;;;;;4999749;28;20196;-47
2023/01/24 01:35:02;;;;;;;22.00;15.18;;;2.60;99.90;;;;;;4999921;28;20200;-47
2023/01/24 01:37:29;;;;;;;16.85;14.27;;;2.70;99.90;;;;;;4999809;28;20291;-48
2023/01/24 01:39:56;;;;;;;18.73;13.27;;;2.40;99.90;;;;;;4933647;29;20307;-47
2023/01/24 01:42:22;;;;;;;20.08;14.02;;;2.30;99.90;;;;;;4999386;28;20243;-47
2023/01/24 01:44:54;;;;;;;18.77;13.90;;;2.50;99.90;;;;;;4934052;28;20211;-47
2023/01/24 01:47:26;;;;;;;19.10;13.60;;;2.70;99.90;;;;;;4933965;28;20225;-47
2023/01/24 01:49:59;;;;;;;21.95;13.48;;;2.90;99.90;;;;;;4933638;28;20204;-47
2023/01/24 01:52:28;;;;;;;14.38;12.15;;;2.60;99.90;;;;;;4933899;28;20197;-47
2023/01/24 01:54:59;;;;;;;16.52;12.43;;;2.50;99.90;;;;;;4933901;28;20200;-47
2023/01/24 01:57:30;;;;;;;16.08;12.02;;;2.40;99.90;;;;;;4934060;28;20255;-47
2023/01/24 02:00:01;;;;;;;16.73;12.05;;;2.60;99.90;;;;;;4934055;28;20551;-47
2023/01/24 02:02:30;;;;;;;14.30;11.02;;;2.70;99.90;;;;;;4934560;29;20220;-47
2023/01/24 02:05:02;;;;;;;14.65;10.73;;;2.60;99.90;;;;;;4999958;28;20197;-48
2023/01/24 02:07:32;;;;;;;14.20;10.77;;;2.00;99.90;;;;;;4999292;28;20700;-48
2023/01/24 02:10:00;;;;;;;12.02;9.80;;;2.70;99.90;;;;;;4933319;28;20219;-48
2023/01/24 02:12:30;;;;;;;13.90;11.20;;;2.40;99.90;;;;;;4999120;28;20200;-48
2023/01/24 02:17:47;;;;;;;15.30;11.55;;;2.40;99.90;;;;;;4933251;29;20723;-48
2023/01/24 02:20:22;;;;;;;13.52;9.55;;;2.50;99.90;;;;;;4933008;29;20206;-48
2023/01/24 02:22:59;;;;;;;14.77;10.77;;;2.40;99.90;;;;;;4999277;28;20219;-47
2023/01/24 02:25:33;;;;;;;13.93;10.30;;;2.40;99.90;;;;;;4999019;28;20603;-48
2023/01/24 02:28:03;;;;;;;15.30;11.23;;;2.50;99.90;;;;;;4999035;28;20231;-48
2023/01/24 02:30:30;;;;;;;14.85;11.60;;;2.50;99.90;;;;;;4933242;28;20196;-48
2023/01/24 02:32:58;;;;;;;15.13;11.60;;;2.60;99.90;;;;;;4998834;28;20204;-48
2023/01/24 02:35:28;;;;;;;14.55;10.80;;;2.30;99.90;;;;;;4998798;28;20235;-48
2023/01/24 02:37:56;;;;;;;12.50;10.02;;;2.60;99.90;;;;;;4933085;28;20203;-48
2023/01/24 02:40:24;;;;;;;14.65;10.50;;;2.30;99.90;;;;;;4998175;28;20197;-48
2023/01/24 02:42:52;;;;;;;13.70;10.82;;;2.60;99.90;;;;;;4933094;28;20231;-48
2023/01/24 02:45:24;;;;;;;13.27;10.10;;;2.60;99.90;;;;;;4932882;29;20327;-48
2023/01/24 02:47:53;;;;;;;14.07;10.68;;;2.60;99.90;;;;;;4998470;28;20250;-48
2023/01/24 02:50:21;;;;;;;13.15;10.90;;;2.70;99.90;;;;;;4932631;28;20208;-48
2023/01/24 02:55:33;;;;;;;13.80;10.45;;;2.50;99.90;;;;;;4998283;28;20224;-48
2023/01/24 02:58:06;;;;;;;13.07;9.85;;;2.90;99.90;;;;;;4998257;28;20204;-48
2023/01/24 03:00:35;;;;;;;14.90;11.05;;;2.50;99.90;;;;;;4998619;28;20204;-48
2023/01/24 03:03:02;;;;;;;14.07;10.35;;;2.50;99.90;;;;;;4998424;28;20219;-48
2023/01/24 03:05:39;;;;;;;13.05;10.55;;;2.50;99.90;;;;;;4998428;28;20228;-48
2023/01/24 03:08:10;;;;;;;11.75;10.45;;;2.40;99.90;;;;;;4997642;28;20207;-48
2023/01/24 03:10:37;;;;;;;12.02;10.10;;;2.40;99.90;;;;;;4998250;28;20204;-48
2023/01/24 03:35:04;;;;;;;13.18;11.07;;;2.50;99.90;;;;;;4997901;28;20212;-49
2023/01/24 03:40:18;;;;;;;13.20;9.15;;;2.40;99.90;;;;;;4996562;28;20567;-48
2023/01/24 03:42:48;;;;;;;14.52;9.48;;;2.40;99.90;;;;;;4932198;28;20656;-48
2023/01/24 03:45:19;;;;;;;12.73;10.20;;;2.40;99.90;;;;;;4997691;28;20297;-48
2023/01/24 03:48:04;;;;;;;12.38;10.25;;;2.90;99.90;;;;;;4997692;28;20231;-48
2023/01/24 03:53:20;;;;;;;10.20;9.20;;;2.50;99.90;;;;;;5004259;28;20297;-48
2023/01/24 03:55:52;;;;;;;12.40;9.73;;;2.40;99.90;;;;;;5004067;28;20321;-48
2023/01/24 03:58:19;;;;;;;10.70;9.45;;;2.20;99.90;;;;;;5003833;28;20204;-48
2023/01/24 04:00:46;;;;;;;10.50;8.70;;;2.20;99.90;;;;;;5003945;28;20346;-48
2023/01/24 04:03:34;;;;;;;12.98;10.05;;;1.70;99.90;;;;;;4938423;28;20232;-48
2023/01/24 04:06:00;;;;;;;11.30;9.63;;;2.20;99.90;;;;;;4938185;28;20234;-48
2023/01/24 04:08:27;;;;;;;11.05;9.00;;;2.50;99.90;;;;;;5003514;28;20227;-48
2023/01/24 04:10:56;;;;;;;16.15;10.82;;;2.50;99.90;;;;;;5004400;28;20203;-48
2023/01/24 04:13:23;;;;;;;16.17;10.52;;;1.80;99.90;;;;;;5005490;28;20378;-48
2023/01/24 04:15:49;;;;;;;13.27;10.75;;;2.30;99.90;;;;;;5005838;28;20223;-47
2023/01/24 04:18:36;;;;;;;11.90;10.57;;;2.40;99.90;;;;;;5004461;28;20215;-48
2023/01/24 04:21:03;;;;;;;14.57;10.82;;;1.60;99.90;;;;;;5004817;28;20262;-48
2023/01/24 04:23:30;;;;;;;11.48;10.27;;;2.40;99.90;;;;;;5004477;28;20216;-48
2023/01/24 04:25:59;;;;;;;13.25;10.43;;;2.30;99.90;;;;;;5003989;28;20231;-48
2023/01/24 04:28:27;;;;;;;13.25;11.27;;;2.30;99.90;;;;;;5003563;28;20210;-48
2023/01/24 04:30:58;;;;;;;12.70;10.80;;;2.20;99.90;;;;;;5003692;28;20204;-48
2023/01/24 04:33:40;;;;;;;16.30;11.93;;;2.20;99.90;;;;;;5003984;28;20274;-48
2023/01/24 04:36:09;;;;;;;13.27;11.40;;;2.70;99.90;;;;;;5003862;28;20227;-48
2023/01/24 04:38:37;;;;;;;15.00;12.57;;;2.10;99.90;;;;;;5003303;28;20207;-48
2023/01/24 04:41:16;;;;;;;13.90;11.05;;;1.90;99.90;;;;;;5003799;28;20581;-48
2023/01/24 04:43:43;;;;;;;14.35;11.65;;;2.10;99.90;;;;;;5003511;28;20228;-48
2023/01/24 04:46:10;;;;;;;18.80;11.38;;;2.50;99.90;;;;;;5003552;28;20220;-48
2023/01/24 04:48:56;;;;;;;14.80;12.25;;;2.10;99.90;;;;;;5003106;28;20204;-47
2023/01/24 04:51:32;;;;;;;14.30;12.00;;;1.50;99.90;;;;;;5003499;28;20258;-48
2023/01/24 04:54:00;;;;;;;14.65;11.57;;;2.40;99.90;;;;;;5003568;28;20204;-48
2023/01/24 04:56:30;;;;;;;13.57;11.55;;;2.40;99.90;;;;;;5003439;28;20323;-48
2023/01/24 04:58:58;;;;;;;16.95;13.32;;;2.30;99.90;;;;;;5003401;28;20650;-48
2023/01/24 05:01:24;;;;;;;18.70;13.05;;;2.10;99.90;;;;;;5000169;28;20295;-47
2023/01/24 05:04:00;;;;;;;16.58;12.40;;;2.00;99.90;;;;;;5000037;28;20228;-46
2023/01/24 05:06:28;;;;;;;14.40;11.73;;;2.60;99.90;;;;;;5000080;28;20600;-48
2023/01/24 05:08:56;;;;;;;14.57;11.10;;;2.20;99.90;;;;;;4999944;28;20290;-48
2023/01/24 05:11:27;;;;;;;16.58;13.35;;;2.10;99.90;;;;;;5000218;28;20216;-48
2023/01/24 05:13:58;;;;;;;12.70;10.57;;;2.50;99.90;;;;;;5000271;28;20452;-48
2023/01/24 05:16:25;;;;;;;16.00;11.52;;;2.50;99.90;;;;;;5000446;28;20583;-48
2023/01/24 05:18:52;;;;;;;15.52;11.23;;;2.30;99.90;;;;;;4999840;28;20735;-50
2023/01/24 05:21:21;;;;;;;15.25;12.45;;;2.00;99.90;;;;;;4999822;28;20250;-48
2023/01/24 05:23:52;;;;;;;17.00;12.13;;;2.40;99.90;;;;;;5000090;28;20231;-48
2023/01/24 05:26:21;;;;;;;12.98;11.32;;;2.80;99.90;;;;;;4999988;28;20236;-47
2023/01/24 05:28:48;;;;;;;14.05;10.85;;;2.10;99.90;;;;;;4999516;28;20200;-47
2023/01/24 05:31:15;;;;;;;15.18;11.40;;;1.50;99.90;;;;;;4932862;28;20293;-47
2023/01/24 05:33:42;;;;;;;14.75;12.27;;;2.20;99.90;;;;;;5000304;28;20688;-47
2023/01/24 05:36:11;;;;;;;16.30;12.18;;;2.20;99.90;;;;;;5000394;28;20248;-47
2023/01/24 05:38:40;;;;;;;12.60;11.30;;;2.20;99.90;;;;;;4999793;28;20676;-50
2023/01/24 05:41:09;;;;;;;13.00;10.43;;;2.10;99.90;;;;;;5000018;28;20200;-48
2023/01/24 05:43:37;;;;;;;17.00;11.77;;;2.30;99.90;;;;;;4999401;28;20652;-48
2023/01/24 05:46:06;;;;;;;18.40;13.10;;;2.10;99.90;;;;;;4999565;28;20220;-48
2023/01/24 05:48:37;;;;;;;16.02;12.00;;;2.30;99.90;;;;;;4999245;28;20208;-49
2023/01/24 05:51:05;;;;;;;13.70;11.85;;;1.50;99.90;;;;;;4933864;29;20644;-46
2023/01/24 05:53:34;;;;;;;15.05;11.60;;;2.10;99.90;;;;;;4999564;28;20204;-49
2023/01/24 05:56:05;;;;;;;12.63;11.30;;;2.20;99.90;;;;;;4933499;29;20222;-46
2023/01/24 05:58:35;;;;;;;15.52;11.48;;;2.40;99.90;;;;;;4999058;28;20265;-46
2023/01/24 06:01:09;;;;;;;16.33;11.20;;;2.10;99.90;;;;;;4999382;28;20290;-47
2023/01/24 06:03:41;;;;;;;14.82;10.90;;;2.20;99.90;;;;;;4999161;28;20220;-47
2023/01/24 06:06:09;;;;;;;15.48;11.85;;;2.30;99.90;;;;;;4959296;23;20235;-49
2023/01/24 06:08:36;;;;;;;19.63;12.05;;;2.00;99.90;;;;;;4953267;29;20298;-49
2023/01/24 06:11:06;;;;;;;15.80;11.98;;;2.20;99.90;;;;;;4953697;29;20634;-48
2023/01/24 06:13:34;;;;;;;18.10;12.80;;;2.20;99.90;;;;;;4952639;29;20573;-51
2023/01/24 06:16:06;;;;;;;18.40;11.68;;;2.10;99.90;;;;;;4957511;28;20274;-50
2023/01/24 06:18:34;;;;;;;14.88;10.90;;;2.10;99.90;;;;;;5020032;28;20732;-50
2023/01/24 06:21:06;;;;;;;17.05;11.60;;;1.70;99.90;;;;;;5021391;28;20225;-50
2023/01/24 06:23:33;;;;;;;18.08;11.75;;;2.10;99.90;;;;;;4954212;29;20219;-49
2023/01/24 06:26:02;;;;;;;19.00;12.77;;;2.10;99.90;;;;;;5021013;28;20235;-49
2023/01/24 06:28:31;;;;;;;19.15;13.20;;;2.30;99.90;;;;;;4955035;29;20195;-49
2023/01/24 06:31:04;;;;;;;18.05;12.50;;;2.00;99.90;;;;;;4954752;29;20200;-49
2023/01/24 06:33:37;;;;;;;23.10;12.30;;;2.00;99.90;;;;;;5020645;28;20214;-49
2023/01/24 06:36:23;;;;;;;19.17;12.95;;;2.00;99.90;;;;;;4954496;29;20224;-50
2023/01/24 06:38:51;;;;;;;20.45;13.18;;;2.10;99.90;;;;;;4953493;29;20210;-51
2023/01/24 06:41:18;;;;;;;23.52;14.50;;;2.30;99.90;;;;;;4954544;29;20199;-51
2023/01/24 06:43:47;;;;;;;26.83;14.48;;;2.20;99.90;;;;;;4955337;29;20219;-50
2023/01/24 06:46:14;;;;;;;27.23;14.77;;;2.10;99.90;;;;;;5020454;28;20239;-51
2023/01/24 06:48:43;;;;;;;23.85;14.82;;;2.20;99.90;;;;;;4953886;29;20247;-52
2023/01/24 06:51:12;;;;;;;26.70;14.13;;;1.90;99.90;;;;;;4953440;29;20199;-50
2023/01/24 06:53:38;;;;;;;26.27;14.85;;;2.30;99.90;;;;;;4953644;29;20205;-50
2023/01/24 06:56:06;;;;;;;29.55;15.88;;;2.00;99.90;;;;;;4953856;29;20570;-51
2023/01/24 06:58:32;;;;;;;32.80;14.63;;;2.20;99.90;;;;;;4953252;29;20660;-52
2023/01/24 07:01:00;;;;;;;28.00;15.40;;;1.90;99.90;;;;;;4954131;29;20191;-49
2023/01/24 07:03:27;;;;;;;26.80;15.23;;;2.10;99.90;;;;;;5019831;28;20307;-49
2023/01/24 07:05:53;;;;;;;29.77;14.90;;;2.20;99.90;;;;;;5020486;28;20239;-52
2023/01/24 07:08:21;;;;;;;26.48;15.23;;;2.40;99.90;;;;;;4954114;29;20225;-50
2023/01/24 07:10:48;;;;;;;28.90;15.55;;;2.20;99.90;;;;;;4954232;29;20729;-50
2023/01/24 07:13:14;;;;;;;32.63;16.10;;;2.00;99.90;;;;;;4954359;29;20203;-50
2023/01/24 07:15:41;;;;;;;31.95;16.27;;;2.00;99.90;;;;;;4953433;29;20206;-51
2023/01/24 07:18:12;;;;;;;30.10;15.73;;;2.20;99.90;;;;;;5019387;28;20227;-54
2023/01/24 07:20:39;;;;;;;30.90;16.05;;;1.90;99.90;;;;;;4953548;28;20195;-51
2023/01/24 07:23:12;;;;;;;32.00;16.00;;;1.90;99.90;;;;;;4951950;28;20203;-50
2023/01/24 07:25:39;;;;;;;33.58;17.70;;;2.10;99.90;;;;;;4950758;29;20223;-50
2023/01/24 07:28:07;;;;;;;36.70;16.95;;;2.20;99.90;;;;;;4951615;29;20575;-51
2023/01/24 07:30:34;;;;;;;28.25;16.45;;;2.10;99.90;;;;;;4951304;29;20210;-51
2023/01/24 07:33:00;;;;;;;40.70;17.50;;;2.20;99.90;;;;;;4950900;29;20259;-51
2023/01/24 07:35:28;;;;;;;31.38;17.52;;;1.90;99.90;;;;;;4950454;29;20206;-50
2023/01/24 07:37:56;;;;;;;42.63;17.88;;;2.00;99.90;;;;;;4950676;29;20223;-50
2023/01/24 07:40:22;;;;;;;41.90;19.88;;;2.20;99.90;;;;;;4950542;29;20218;-50
2023/01/24 07:42:49;;;;;;;36.28;17.40;;;2.00;99.90;;;;;;4951138;28;20670;-54
2023/01/24 07:45:15;;;;;;;39.78;18.27;;;1.80;99.90;;;;;;5017151;28;20223;-50
2023/01/24 07:47:42;;;;;;;42.50;19.10;;;2.30;99.90;;;;;;4951002;29;20223;-51
2023/01/24 07:50:10;;;;;;;46.05;19.63;;;2.10;99.90;;;;;;4949965;29;20231;-50
2023/01/24 07:52:38;;;;;;;42.28;19.23;;;2.40;99.90;;;;;;5016644;28;20207;-52
2023/01/24 07:55:05;;;;;;;39.15;20.42;;;1.90;99.90;;;;;;4950782;29;20664;-50
2023/01/24 07:57:32;;;;;;;45.42;19.45;;;2.60;99.90;;;;;;4950269;28;20300;-50
2023/01/24 07:59:58;;;;;;;43.75;20.08;;;2.10;99.90;;;;;;4950081;29;20200;-50
2023/01/24 08:02:25;;;;;;;57.30;21.60;;;2.00;99.90;;;;;;4950528;29;20202;-50
2023/01/24 08:04:51;;;;;;;44.70;21.27;;;2.10;99.90;;;;;;4951998;29;20223;-49
2023/01/24 08:07:18;;;;;;;55.47;24.30;;;2.10;99.90;;;;;;4951465;29;20435;-51
2023/01/24 08:09:47;;;;;;;55.17;27.10;;;2.60;99.90;;;;;;4949278;29;20478;-50
2023/01/24 08:12:14;;;;;;;53.40;24.00;;;2.60;99.90;;;;;;4950588;29;20199;-49
2023/01/24 08:14:41;;;;;;;43.70;21.35;;;2.50;99.90;;;;;;4950908;29;20200;-50
2023/01/24 08:17:08;;;;;;;45.20;22.65;;;2.00;99.90;;;;;;4950286;29;20230;-49
2023/01/24 08:19:35;;;;;;;49.05;22.05;;;2.40;99.90;;;;;;4950078;29;20206;-49
2023/01/24 08:22:02;;;;;;;39.75;19.73;;;2.50;99.90;;;;;;5016924;28;20618;-50
2023/01/24 08:24:29;;;;;;;55.00;21.88;;;2.60;99.90;;;;;;4950296;29;20227;-50
2023/01/24 08:26:57;;;;;;;46.53;22.05;;;1.90;99.90;;;;;;4950252;29;20749;-50
2023/01/24 08:29:23;;;;;;;62.03;26.80;;;2.60;99.90;;;;;;4949636;28;20774;-49
2023/01/24 08:31:50;;;;;;;52.83;24.42;;;2.40;99.90;;;;;;4950170;29;20710;-50
2023/01/24 08:34:16;;;;;;;58.28;22.70;;;2.60;99.90;;;;;;4950262;28;20586;-49
2023/01/24 08:36:43;;;;;;;52.10;22.48;;;2.40;99.90;;;;;;5019238;28;20219;-50
2023/01/24 08:39:10;;;;;;;52.55;21.90;;;2.40;99.90;;;;;;4953456;29;20200;-50
2023/01/24 08:41:36;;;;;;;47.03;20.67;;;2.30;99.90;;;;;;4953608;29;20200;-49
2023/01/24 08:44:05;;;;;;;58.17;23.23;;;2.30;99.90;;;;;;4953372;29;20335;-50
2023/01/24 08:46:32;;;;;;;49.03;21.85;;;2.60;99.90;;;;;;4953639;29;20220;-49
2023/01/24 08:48:58;;;;;;;55.22;21.13;;;2.50;99.90;;;;;;4953109;29;20615;-49
2023/01/24 08:51:25;;;;;;;59.30;24.42;;;2.50;99.90;;;;;;4953363;29;20207;-50
2023/01/24 08:53:52;;;;;;;56.42;23.75;;;2.70;99.90;;;;;;4953475;29;20200;-49
2023/01/24 08:56:19;;;;;;;60.70;24.40;;;2.40;99.90;;;;;;5019658;28;20223;-50
2023/01/24 08:58:45;;;;;;;57.40;25.88;;;2.80;99.90;;;;;;4952928;29;20200;-50
2023/01/24 09:01:13;;;;;;;65.63;25.50;;;2.50;99.90;;;;;;4953166;29;20210;-50
2023/01/24 09:03:40;;;;;;;66.25;27.05;;;2.10;99.90;;;;;;4953205;29;20200;-50
2023/01/24 09:06:06;;;;;;;59.08;25.42;;;2.70;99.90;;;;;;4952801;29;20235;-50
2023/01/24 09:08:33;;;;;;;72.22;28.80;;;2.80;99.90;;;;;;4952875;29;20215;-50
2023/01/24 09:11:01;;;;;;;66.78;29.55;;;2.80;99.90;;;;;;4953273;28;20200;-50
2023/01/24 09:13:28;;;;;;;64.72;28.10;;;2.30;99.90;;;;;;4953387;29;20203;-50
2023/01/24 09:15:54;;;;;;;80.53;32.67;;;2.70;99.90;;;;;;4952958;29;20579;-50
2023/01/24 09:18:22;;;;;;;68.45;28.83;;;2.90;99.90;;;;;;4952728;29;20251;-50
2023/01/24 09:20:49;;;;;;;79.13;30.40;;;2.50;99.90;;;;;;4953076;29;20200;-50
2023/01/24 09:23:15;;;;;;;65.35;28.45;;;2.80;99.90;;;;;;4953096;29;20565;-51
2023/01/24 09:25:49;;;;;;;64.40;27.48;;;2.80;99.90;;;;;;4953060;29;20579;-50
2023/01/24 09:28:18;;;;;;;74.78;27.58;;;2.80;99.90;;;;;;4954422;29;20207;-50
2023/01/24 09:30:44;;;;;;;62.20;27.45;;;2.90;99.90;;;;;;5019451;28;20638;-51
2023/01/24 09:33:11;;;;;;;69.30;28.40;;;3.00;99.90;;;;;;4952916;29;20200;-49
2023/01/24 09:35:39;;;;;;;63.17;27.73;;;2.80;99.90;;;;;;4952603;29;20223;-50
2023/01/24 09:38:06;;;;;;;74.07;29.50;;;3.00;99.90;;;;;;4952540;29;20199;-50
2023/01/24 09:40:43;;;;;;;65.38;28.13;;;2.90;99.90;;;;;;4953350;29;20210;-49
2023/01/24 09:43:16;;;;;;;80.97;29.45;;;2.60;99.90;;;;;;4953356;29;20200;-50
2023/01/24 09:45:50;;;;;;;75.43;30.27;;;3.20;99.90;;;;;;4952781;28;20868;-53
2023/01/24 09:48:16;;;;;;;73.90;28.40;;;3.10;99.90;;;;;;4951824;29;20200;-49
2023/01/24 09:50:48;;;;;;;86.38;35.85;;;3.10;99.90;;;;;;4951705;29;20447;-50
2023/01/24 09:53:18;;;;;;;84.47;37.05;;;3.50;99.90;;;;;;4951609;29;20432;-49
2023/01/24 09:55:46;;;;;;;74.00;30.27;;;3.60;99.90;;;;;;4952498;29;20263;-50
2023/01/24 09:58:28;;;;;;;77.40;29.45;;;3.50;99.90;;;;;;4952538;29;20200;-50
2023/01/24 10:00:55;;;;;;;72.85;31.23;;;3.40;99.90;;;;;;5018299;28;20219;-50
2023/01/24 10:03:24;;;;;;;74.70;31.98;;;3.50;99.90;;;;;;4952615;29;20229;-50
2023/01/24 10:05:54;;;;;;;91.93;29.58;;;3.50;99.90;;;;;;4952021;29;20243;-50
2023/01/24 10:08:28;;;;;;;66.40;28.73;;;3.70;99.90;;;;;;4952218;29;20215;-50
2023/01/24 10:11:04;;;;;;;68.88;31.17;;;3.60;99.90;;;;;;4952306;29;20215;-50
2023/01/24 10:14:12;;;;;;;82.43;32.47;;;3.50;99.90;;;;;;4952642;29;20207;-50
2023/01/24 10:17:10;;;;;;;72.75;29.55;;;3.40;99.90;;;;;;4952495;29;20222;-49
2023/01/24 10:19:59;;;;;;;66.43;30.85;;;3.60;99.90;;;;;;4951808;28;20537;-50
2023/01/24 10:22:43;;;;;;;78.47;34.80;;;3.40;99.90;;;;;;4951095;29;20443;-50
2023/01/24 10:25:15;;;;;;;82.13;33.28;;;3.80;99.90;;;;;;4951921;29;20310;-50
2023/01/24 10:27:47;;;;;;;72.75;29.98;;;3.60;99.90;;;;;;4951946;29;20290;-49
2023/01/24 10:30:18;;;;;;;76.95;28.48;;;3.30;99.90;;;;;;4951959;29;20204;-50
2023/01/24 10:32:47;;;;;;;74.60;29.23;;;3.80;99.90;;;;;;4952021;29;20204;-50
2023/01/24 10:35:17;;;;;;;73.53;31.65;;;3.20;99.90;;;;;;4951436;29;20257;-50
2023/01/24 10:37:54;;;;;;;74.28;29.60;;;3.60;99.90;;;;;;4951922;29;20241;-50
2023/01/24 10:40:21;;;;;;;74.10;32.78;;;2.90;99.90;;;;;;4952336;29;20206;-50
2023/01/24 10:42:48;;;;;;;60.80;25.88;;;3.50;99.90;;;;;;4951666;28;20199;-49
2023/01/24 10:45:40;;;;;;;67.00;26.58;;;3.30;99.90;;;;;;4951603;29;20223;-49
2023/01/24 10:48:28;;;;;;;65.35;27.30;;;3.60;99.90;;;;;;4952743;29;20207;-49
2023/01/24 10:50:55;;;;;;;56.50;26.00;;;3.70;99.90;;;;;;4952412;29;20207;-49
2023/01/24 10:53:26;;;;;;;62.97;29.17;;;3.80;99.90;;;;;;4951503;29;20245;-50
2023/01/24 10:56:00;;;;;;;55.75;26.00;;;3.60;99.90;;;;;;4951488;29;20211;-49
2023/01/24 10:58:28;;;;;;;73.95;27.88;;;3.30;99.90;;;;;;4950121;29;20204;-49
2023/01/24 11:00:59;;;;;;;68.57;29.10;;;3.80;99.90;;;;;;4951227;29;20672;-49
2023/01/24 11:03:28;;;;;;;63.85;31.45;;;3.40;99.90;;;;;;4949926;29;20438;-50
2023/01/24 11:05:57;;;;;;;66.60;30.75;;;4.00;99.90;;;;;;4951058;29;20231;-50
2023/01/24 11:08:27;;;;;;;67.38;29.65;;;4.10;99.90;;;;;;4951188;29;20440;-49
2023/01/24 11:10:55;;;;;;;64.50;26.83;;;3.60;99.90;;;;;;4951101;29;20200;-49
2023/01/24 11:13:44;;;;;;;60.37;32.13;;;3.80;99.90;;;;;;4950108;29;20824;-50
2023/01/24 11:16:22;;;;;;;61.15;27.50;;;3.50;99.90;;;;;;4951490;28;20470;-50
2023/01/24 11:18:52;;;;;;;48.20;25.00;;;4.00;99.90;;;;;;4951159;29;20594;-50
2023/01/24 11:21:20;;;;;;;47.85;25.25;;;3.80;99.90;;;;;;4951168;29;20211;-50
2023/01/24 11:24:00;;;;;;;53.33;24.63;;;3.70;99.90;;;;;;4950949;29;20208;-50
2023/01/24 11:26:29;;;;;;;46.17;24.80;;;3.60;99.90;;;;;;4951628;29;20235;-50
2023/01/24 11:28:58;;;;;;;46.40;24.17;;;3.80;99.90;;;;;;4950873;29;20560;-50
2023/01/24 11:31:29;;;;;;;48.20;23.05;;;3.60;99.90;;;;;;4950894;28;20202;-50
2023/01/24 11:34:12;;;;;;;50.45;23.95;;;3.20;99.90;;;;;;4950947;29;20652;-50
2023/01/24 11:36:43;;;;;;;42.38;23.63;;;3.20;99.90;;;;;;4951148;29;20215;-50
2023/01/24 11:39:21;;;;;;;54.50;23.63;;;3.50;99.90;;;;;;4950932;29;20207;-49
2023/01/24 11:41:54;;;;;;;46.33;24.60;;;3.50;99.90;;;;;;4951428;29;20203;-49
2023/01/24 11:44:45;;;;;;;44.78;23.38;;;3.40;99.90;;;;;;4952052;29;20579;-48
2023/01/24 11:47:16;;;;;;;49.10;23.50;;;3.70;99.90;;;;;;4950905;29;20222;-50
2023/01/24 11:50:00;;;;;;;45.05;23.40;;;3.70;99.90;;;;;;4950565;29;20214;-49
2023/01/24 11:52:48;;;;;;;40.70;22.80;;;3.60;99.90;;;;;;4950816;29;20278;-50
2023/01/24 11:55:36;;;;;;;50.83;24.83;;;3.20;99.90;;;;;;4950923;29;20602;-50
2023/01/24 11:58:21;;;;;;;50.50;23.60;;;3.70;99.90;;;;;;4950700;29;20199;-50
2023/01/24 12:00:54;;;;;;;50.15;23.23;;;3.80;99.90;;;;;;4950890;29;20232;-50
2023/01/24 12:03:39;;;;;;;40.05;23.92;;;3.80;99.90;;;;;;4950697;29;20660;-50
2023/01/24 12:06:17;;;;;;;43.47;23.17;;;3.90;99.90;;;;;;4974133;23;20306;-48
2023/01/24 12:09:09;;;;;;;46.63;23.67;;;4.00;99.90;;;;;;4950941;29;20207;-49
2023/01/24 12:11:42;;;;;;;40.78;23.50;;;3.70;99.90;;;;;;4953340;28;20299;-49
2023/01/24 12:14:28;;;;;;;42.33;23.85;;;4.00;99.90;;;;;;4954527;29;20195;-49
2023/01/24 12:17:05;;;;;;;56.53;30.50;;;3.90;99.90;;;;;;4955066;28;20432;-48
2023/01/24 12:19:47;;;;;;;50.42;24.25;;;4.00;99.90;;;;;;4955211;28;20203;-48
2023/01/24 12:22:18;;;;;;;40.13;25.00;;;4.20;99.90;;;;;;4954411;29;20424;-49
2023/01/24 12:24:48;;;;;;;41.33;24.60;;;4.30;99.90;;;;;;4954244;29;20199;-50
2023/01/24 12:27:18;;;;;;;44.10;23.05;;;4.00;99.90;;;;;;4954047;28;20710;-51
2023/01/24 12:29:54;;;;;;;44.60;24.35;;;3.90;99.90;;;;;;4954534;29;20656;-48
2023/01/24 12:32:24;;;;;;;42.50;22.60;;;3.90;99.90;;;;;;4954312;28;20217;-49
2023/01/24 12:34:56;;;;;;;41.45;26.98;;;3.90;99.90;;;;;;4952854;29;20485;-47
2023/01/24 12:37:27;;;;;;;45.55;28.13;;;4.20;99.90;;;;;;4953450;28;20477;-47
2023/01/24 12:40:01;;;;;;;42.78;23.08;;;4.70;99.90;;;;;;4954144;29;20435;-47
2023/01/24 12:42:41;;;;;;;41.75;23.35;;;4.30;99.90;;;;;;4954408;28;20196;-47
2023/01/24 12:45:15;;;;;;;46.83;23.40;;;4.00;99.90;;;;;;4954908;29;20200;-47
2023/01/24 12:47:47;;;;;;;48.42;24.83;;;4.10;99.90;;;;;;4953781;28;20707;-51
2023/01/24 12:50:22;;;;;;;42.63;23.65;;;4.00;99.90;;;;;;4953576;29;20553;-48
2023/01/24 12:52:58;;;;;;;45.20;26.15;;;4.10;99.90;;;;;;4953833;28;20427;-46
2023/01/24 12:55:28;;;;;;;47.05;26.77;;;3.60;99.90;;;;;;4953539;29;20431;-49
2023/01/24 12:58:01;;;;;;;49.78;28.17;;;4.10;99.90;;;;;;5019045;28;20471;-50
2023/01/24 13:00:39;;;;;;;48.25;26.35;;;3.60;99.90;;;;;;4954040;28;20215;-48
2023/01/24 13:03:44;;;;;;;46.38;24.33;;;4.20;99.90;;;;;;4953510;29;20207;-48
2023/01/24 13:06:22;;;;;;;46.57;25.30;;;4.00;99.90;;;;;;4952859;28;20460;-47
2023/01/24 13:09:01;;;;;;;46.55;23.58;;;4.00;99.90;;;;;;4953543;28;20445;-47
2023/01/24 13:11:28;;;;;;;42.95;22.55;;;4.10;99.90;;;;;;4953784;29;20589;-48
2023/01/24 13:14:10;;;;;;;37.90;21.45;;;4.00;99.90;;;;;;4954173;28;20192;-47
2023/01/24 13:16:59;;;;;;;47.92;23.50;;;3.90;99.90;;;;;;4953216;28;20542;-47
2023/01/24 13:19:38;;;;;;;46.58;25.83;;;3.90;99.90;;;;;;4953344;28;20460;-49
2023/01/24 13:22:21;;;;;;;51.17;24.88;;;4.10;99.90;;;;;;4952653;28;20206;-48
2023/01/24 13:24:57;;;;;;;44.85;22.48;;;4.30;99.90;;;;;;4954285;28;20203;-49
2023/01/24 13:27:38;;;;;;;51.42;28.73;;;3.60;99.90;;;;;;4953436;28;20234;-48
2023/01/24 13:30:28;;;;;;;61.72;30.88;;;4.00;99.90;;;;;;4953350;28;20204;-49